sensor_id;sensor_type;location;lat;lon;timestamp;P1;durP1;ratioP1;P2;durP2;ratioP2
78372;SDS011;67656;52.074;4.758;2023-02-19T00:02:08;19.35;;;4.43;;
78372;SDS011;67656;52.074;4.758;2023-02-19T00:07:08;17.98;;;4.13;;
78372;SDS011;67656;52.074;4.758;2023-02-19T00:12:09;19.40;;;4.20;;
78372;SDS011;67656;52.074;4.758;2023-02-19T00:17:09;17.70;;;3.83;;
78372;SDS011;67656;52.074;4.758;2023-02-19T00:22:09;9.45;;;2.50;;
78372;SDS011;67656;52.074;4.758;2023-02-19T00:27:10;13.40;;;2.80;;
78372;SDS011;67656;52.074;4.758;2023-02-19T00:32:10;10.15;;;1.95;;
78372;SDS011;67656;52.074;4.758;2023-02-19T00:37:10;10.55;;;2.00;;
78372;SDS011;67656;52.074;4.758;2023-02-19T00:42:11;11.52;;;2.03;;
78372;SDS011;67656;52.074;4.758;2023-02-19T00:47:11;5.75;;;1.50;;
78372;SDS011;67656;52.074;4.758;2023-02-19T00:52:12;10.63;;;1.83;;
78372;SDS011;67656;52.074;4.758;2023-02-19T00:57:13;9.45;;;2.00;;
78372;SDS011;67656;52.074;4.758;2023-02-19T01:02:13;11.15;;;2.33;;
78372;SDS011;67656;52.074;4.758;2023-02-19T01:07:13;11.02;;;1.80;;
78372;SDS011;67656;52.074;4.758;2023-02-19T01:12:14;5.30;;;1.58;;
78372;SDS011;67656;52.074;4.758;2023-02-19T01:17:14;8.30;;;1.83;;
78372;SDS011;67656;52.074;4.758;2023-02-19T01:22:14;10.55;;;2.03;;
78372;SDS011;67656;52.074;4.758;2023-02-19T01:27:15;16.08;;;2.22;;
78372;SDS011;67656;52.074;4.758;2023-02-19T01:32:15;8.48;;;1.98;;
78372;SDS011;67656;52.074;4.758;2023-02-19T01:37:15;11.52;;;1.92;;
78372;SDS011;67656;52.074;4.758;2023-02-19T01:42:16;8.88;;;1.75;;
78372;SDS011;67656;52.074;4.758;2023-02-19T01:47:16;8.73;;;1.63;;
78372;SDS011;67656;52.074;4.758;2023-02-19T01:52:26;8.20;;;2.38;;
78372;SDS011;67656;52.074;4.758;2023-02-19T01:57:32;10.57;;;2.10;;
78372;SDS011;67656;52.074;4.758;2023-02-19T02:02:40;15.18;;;2.35;;
78372;SDS011;67656;52.074;4.758;2023-02-19T02:07:42;11.17;;;2.40;;
78372;SDS011;67656;52.074;4.758;2023-02-19T02:12:42;14.18;;;2.30;;
78372;SDS011;67656;52.074;4.758;2023-02-19T02:38:42;13.35;;;2.28;;
78372;SDS011;67656;52.074;4.758;2023-02-19T02:43:46;12.55;;;2.65;;
78372;SDS011;67656;52.074;4.758;2023-02-19T02:48:49;15.40;;;2.75;;
78372;SDS011;67656;52.074;4.758;2023-02-19T02:54:06;12.93;;;2.50;;
78372;SDS011;67656;52.074;4.758;2023-02-19T02:59:12;9.70;;;2.50;;
78372;SDS011;67656;52.074;4.758;2023-02-19T03:04:18;10.27;;;2.80;;
78372;SDS011;67656;52.074;4.758;2023-02-19T03:09:36;8.63;;;2.17;;
78372;SDS011;67656;52.074;4.758;2023-02-19T03:14:49;10.45;;;2.20;;
78372;SDS011;67656;52.074;4.758;2023-02-19T03:19:55;11.95;;;2.20;;
78372;SDS011;67656;52.074;4.758;2023-02-19T03:25:03;11.02;;;2.80;;
78372;SDS011;67656;52.074;4.758;2023-02-19T03:30:09;7.88;;;2.28;;
78372;SDS011;67656;52.074;4.758;2023-02-19T03:35:15;16.98;;;2.88;;
78372;SDS011;67656;52.074;4.758;2023-02-19T03:40:19;10.52;;;2.60;;
78372;SDS011;67656;52.074;4.758;2023-02-19T03:50:45;10.55;;;2.70;;
78372;SDS011;67656;52.074;4.758;2023-02-19T04:01:08;14.43;;;2.97;;
78372;SDS011;67656;52.074;4.758;2023-02-19T04:06:35;13.95;;;2.90;;
78372;SDS011;67656;52.074;4.758;2023-02-19T04:11:38;14.07;;;2.00;;
78372;SDS011;67656;52.074;4.758;2023-02-19T04:16:44;17.35;;;2.28;;
78372;SDS011;67656;52.074;4.758;2023-02-19T04:21:49;13.25;;;2.28;;
78372;SDS011;67656;52.074;4.758;2023-02-19T04:26:52;13.25;;;2.33;;
78372;SDS011;67656;52.074;4.758;2023-02-19T04:31:54;7.53;;;2.00;;
78372;SDS011;67656;52.074;4.758;2023-02-19T04:36:54;14.48;;;2.22;;
78372;SDS011;67656;52.074;4.758;2023-02-19T04:41:54;8.06;;;1.66;;
78372;SDS011;67656;52.074;4.758;2023-02-19T04:46:56;10.43;;;2.00;;
78372;SDS011;67656;52.074;4.758;2023-02-19T04:51:56;12.45;;;2.28;;
78372;SDS011;67656;52.074;4.758;2023-02-19T04:56:56;9.23;;;1.70;;
78372;SDS011;67656;52.074;4.758;2023-02-19T05:01:57;17.10;;;2.40;;
78372;SDS011;67656;52.074;4.758;2023-02-19T05:06:57;10.77;;;1.98;;
78372;SDS011;67656;52.074;4.758;2023-02-19T05:11:58;8.38;;;1.60;;
78372;SDS011;67656;52.074;4.758;2023-02-19T05:16:58;11.52;;;2.33;;
78372;SDS011;67656;52.074;4.758;2023-02-19T05:21:58;17.05;;;2.55;;
78372;SDS011;67656;52.074;4.758;2023-02-19T05:26:59;13.48;;;2.17;;
78372;SDS011;67656;52.074;4.758;2023-02-19T05:31:59;8.80;;;2.22;;
78372;SDS011;67656;52.074;4.758;2023-02-19T05:36:59;9.07;;;2.00;;
78372;SDS011;67656;52.074;4.758;2023-02-19T05:42:00;15.07;;;2.30;;
78372;SDS011;67656;52.074;4.758;2023-02-19T05:47:00;8.75;;;2.00;;
78372;SDS011;67656;52.074;4.758;2023-02-19T05:52:00;8.13;;;2.00;;
78372;SDS011;67656;52.074;4.758;2023-02-19T05:57:01;7.82;;;1.95;;
78372;SDS011;67656;52.074;4.758;2023-02-19T06:02:01;11.25;;;2.58;;
78372;SDS011;67656;52.074;4.758;2023-02-19T06:07:01;12.90;;;2.20;;
78372;SDS011;67656;52.074;4.758;2023-02-19T06:12:02;12.48;;;2.67;;
78372;SDS011;67656;52.074;4.758;2023-02-19T06:17:02;14.02;;;2.55;;
78372;SDS011;67656;52.074;4.758;2023-02-19T06:22:03;13.48;;;2.90;;
78372;SDS011;67656;52.074;4.758;2023-02-19T06:27:06;8.07;;;2.60;;
78372;SDS011;67656;52.074;4.758;2023-02-19T06:37:08;8.58;;;2.54;;
78372;SDS011;67656;52.074;4.758;2023-02-19T06:42:08;10.77;;;2.53;;
78372;SDS011;67656;52.074;4.758;2023-02-19T06:47:08;10.70;;;2.70;;
78372;SDS011;67656;52.074;4.758;2023-02-19T06:52:09;11.10;;;2.58;;
78372;SDS011;67656;52.074;4.758;2023-02-19T06:57:09;11.77;;;2.70;;
78372;SDS011;67656;52.074;4.758;2023-02-19T07:02:10;12.95;;;3.08;;
78372;SDS011;67656;52.074;4.758;2023-02-19T07:07:11;23.63;;;4.17;;
78372;SDS011;67656;52.074;4.758;2023-02-19T07:12:11;10.53;;;2.93;;
78372;SDS011;67656;52.074;4.758;2023-02-19T07:17:12;9.23;;;2.87;;
78372;SDS011;67656;52.074;4.758;2023-02-19T07:22:12;18.02;;;3.05;;
78372;SDS011;67656;52.074;4.758;2023-02-19T07:27:12;15.05;;;3.50;;
78372;SDS011;67656;52.074;4.758;2023-02-19T07:32:13;16.70;;;3.70;;
78372;SDS011;67656;52.074;4.758;2023-02-19T07:37:13;11.68;;;3.47;;
78372;SDS011;67656;52.074;4.758;2023-02-19T07:42:13;13.35;;;3.03;;
78372;SDS011;67656;52.074;4.758;2023-02-19T07:47:14;16.73;;;3.80;;
78372;SDS011;67656;52.074;4.758;2023-02-19T07:52:14;16.13;;;3.90;;
78372;SDS011;67656;52.074;4.758;2023-02-19T07:57:14;9.98;;;3.33;;
78372;SDS011;67656;52.074;4.758;2023-02-19T08:02:16;12.88;;;2.80;;
78372;SDS011;67656;52.074;4.758;2023-02-19T08:12:20;13.97;;;3.00;;
78372;SDS011;67656;52.074;4.758;2023-02-19T08:17:20;14.68;;;3.53;;
78372;SDS011;67656;52.074;4.758;2023-02-19T08:22:20;14.90;;;3.65;;
78372;SDS011;67656;52.074;4.758;2023-02-19T08:27:21;16.75;;;3.72;;
78372;SDS011;67656;52.074;4.758;2023-02-19T08:32:21;12.35;;;3.15;;
78372;SDS011;67656;52.074;4.758;2023-02-19T08:37:21;15.20;;;3.72;;
78372;SDS011;67656;52.074;4.758;2023-02-19T08:42:22;14.57;;;3.78;;
78372;SDS011;67656;52.074;4.758;2023-02-19T08:47:23;15.65;;;3.95;;
78372;SDS011;67656;52.074;4.758;2023-02-19T08:52:23;14.70;;;3.67;;
78372;SDS011;67656;52.074;4.758;2023-02-19T08:57:23;15.50;;;3.60;;
78372;SDS011;67656;52.074;4.758;2023-02-19T09:02:24;18.40;;;5.90;;
78372;SDS011;67656;52.074;4.758;2023-02-19T09:07:24;20.40;;;4.15;;
78372;SDS011;67656;52.074;4.758;2023-02-19T09:12:25;12.93;;;4.55;;
78372;SDS011;67656;52.074;4.758;2023-02-19T09:17:26;12.90;;;6.63;;
78372;SDS011;67656;52.074;4.758;2023-02-19T09:22:26;14.68;;;4.38;;
78372;SDS011;67656;52.074;4.758;2023-02-19T09:27:27;16.90;;;7.68;;
78372;SDS011;67656;52.074;4.758;2023-02-19T09:32:31;18.42;;;5.50;;
78372;SDS011;67656;52.074;4.758;2023-02-19T09:42:32;14.68;;;2.53;;
78372;SDS011;67656;52.074;4.758;2023-02-19T09:47:32;8.75;;;2.13;;
78372;SDS011;67656;52.074;4.758;2023-02-19T09:52:41;13.65;;;2.30;;
78372;SDS011;67656;52.074;4.758;2023-02-19T09:57:48;14.45;;;2.13;;
78372;SDS011;67656;52.074;4.758;2023-02-19T10:02:58;10.60;;;2.60;;
78372;SDS011;67656;52.074;4.758;2023-02-19T10:08:03;6.85;;;1.90;;
78372;SDS011;67656;52.074;4.758;2023-02-19T10:13:22;5.75;;;2.08;;
78372;SDS011;67656;52.074;4.758;2023-02-19T10:18:25;4.82;;;1.67;;
78372;SDS011;67656;52.074;4.758;2023-02-19T10:23:32;4.78;;;1.67;;
78372;SDS011;67656;52.074;4.758;2023-02-19T10:28:33;3.45;;;1.63;;
78372;SDS011;67656;52.074;4.758;2023-02-19T10:33:46;7.82;;;1.85;;
78372;SDS011;67656;52.074;4.758;2023-02-19T10:38:48;5.57;;;1.42;;
78372;SDS011;67656;52.074;4.758;2023-02-19T10:43:53;5.28;;;1.58;;
78372;SDS011;67656;52.074;4.758;2023-02-19T10:49:05;7.10;;;1.73;;
78372;SDS011;67656;52.074;4.758;2023-02-19T10:54:19;4.80;;;1.15;;
78372;SDS011;67656;52.074;4.758;2023-02-19T10:59:32;6.57;;;1.35;;
78372;SDS011;67656;52.074;4.758;2023-02-19T11:04:33;5.55;;;1.40;;
78372;SDS011;67656;52.074;4.758;2023-02-19T11:09:37;8.00;;;1.50;;
78372;SDS011;67656;52.074;4.758;2023-02-19T11:14:41;8.20;;;1.77;;
78372;SDS011;67656;52.074;4.758;2023-02-19T11:19:43;8.15;;;1.77;;
78372;SDS011;67656;52.074;4.758;2023-02-19T11:24:47;8.05;;;2.42;;
78372;SDS011;67656;52.074;4.758;2023-02-19T11:29:49;5.97;;;1.10;;
78372;SDS011;67656;52.074;4.758;2023-02-19T11:34:50;8.10;;;1.23;;
78372;SDS011;67656;52.074;4.758;2023-02-19T11:39:51;5.78;;;1.48;;
78372;SDS011;67656;52.074;4.758;2023-02-19T11:50:26;3.67;;;1.35;;
78372;SDS011;67656;52.074;4.758;2023-02-19T12:01:02;5.00;;;1.90;;
78372;SDS011;67656;52.074;4.758;2023-02-19T12:11:35;5.57;;;1.63;;
78372;SDS011;67656;52.074;4.758;2023-02-19T12:22:31;3.03;;;1.00;;
78372;SDS011;67656;52.074;4.758;2023-02-19T12:27:44;1.98;;;0.93;;
78372;SDS011;67656;52.074;4.758;2023-02-19T12:38:01;14.38;;;4.75;;
78372;SDS011;67656;52.074;4.758;2023-02-19T12:53:32;5.28;;;2.10;;
78372;SDS011;67656;52.074;4.758;2023-02-19T12:58:43;5.93;;;2.33;;
78372;SDS011;67656;52.074;4.758;2023-02-19T13:03:46;4.68;;;1.58;;
78372;SDS011;67656;52.074;4.758;2023-02-19T13:08:54;5.03;;;1.83;;
78372;SDS011;67656;52.074;4.758;2023-02-19T13:19:25;3.80;;;1.40;;
78372;SDS011;67656;52.074;4.758;2023-02-19T13:24:29;6.45;;;2.55;;
78372;SDS011;67656;52.074;4.758;2023-02-19T13:29:40;4.70;;;1.80;;
78372;SDS011;67656;52.074;4.758;2023-02-19T13:40:54;13.20;;;3.97;;
78372;SDS011;67656;52.074;4.758;2023-02-19T13:46:04;12.75;;;3.35;;
78372;SDS011;67656;52.074;4.758;2023-02-19T13:51:37;4.93;;;1.60;;
78372;SDS011;67656;52.074;4.758;2023-02-19T14:12:51;2.95;;;1.23;;
78372;SDS011;67656;52.074;4.758;2023-02-19T14:27:44;3.13;;;1.50;;
78372;SDS011;67656;52.074;4.758;2023-02-19T14:32:45;3.30;;;1.35;;
78372;SDS011;67656;52.074;4.758;2023-02-19T14:37:46;4.30;;;1.83;;
78372;SDS011;67656;52.074;4.758;2023-02-19T14:42:49;5.03;;;2.50;;
78372;SDS011;67656;52.074;4.758;2023-02-19T14:47:52;5.65;;;2.90;;
78372;SDS011;67656;52.074;4.758;2023-02-19T14:52:57;4.95;;;2.92;;
78372;SDS011;67656;52.074;4.758;2023-02-19T14:58:05;6.43;;;2.03;;
78372;SDS011;67656;52.074;4.758;2023-02-19T15:08:43;4.68;;;2.55;;
78372;SDS011;67656;52.074;4.758;2023-02-19T15:13:56;5.47;;;2.58;;
78372;SDS011;67656;52.074;4.758;2023-02-19T15:19:03;7.65;;;4.22;;
78372;SDS011;67656;52.074;4.758;2023-02-19T15:24:05;9.65;;;5.25;;
78372;SDS011;67656;52.074;4.758;2023-02-19T15:29:13;20.05;;;7.25;;
78372;SDS011;67656;52.074;4.758;2023-02-19T15:34:24;3.42;;;1.90;;
78372;SDS011;67656;52.074;4.758;2023-02-19T15:39:31;2.85;;;1.73;;
78372;SDS011;67656;52.074;4.758;2023-02-19T15:49:55;10.75;;;6.40;;
78372;SDS011;67656;52.074;4.758;2023-02-19T16:00:16;5.73;;;3.33;;
78372;SDS011;67656;52.074;4.758;2023-02-19T16:05:23;5.57;;;2.60;;
78372;SDS011;67656;52.074;4.758;2023-02-19T16:10:25;2.17;;;1.30;;
78372;SDS011;67656;52.074;4.758;2023-02-19T16:15:26;6.47;;;2.10;;
78372;SDS011;67656;52.074;4.758;2023-02-19T16:20:28;9.83;;;4.27;;
78372;SDS011;67656;52.074;4.758;2023-02-19T16:25:37;3.37;;;1.97;;
78372;SDS011;67656;52.074;4.758;2023-02-19T16:30:40;2.93;;;1.73;;
78372;SDS011;67656;52.074;4.758;2023-02-19T16:35:40;2.47;;;1.60;;
78372;SDS011;67656;52.074;4.758;2023-02-19T16:45:47;5.23;;;2.20;;
78372;SDS011;67656;52.074;4.758;2023-02-19T16:50:50;4.57;;;2.00;;
78372;SDS011;67656;52.074;4.758;2023-02-19T16:55:51;9.23;;;2.77;;
78372;SDS011;67656;52.074;4.758;2023-02-19T17:00:51;11.67;;;5.67;;
78372;SDS011;67656;52.074;4.758;2023-02-19T17:05:51;9.90;;;7.53;;
78372;SDS011;67656;52.074;4.758;2023-02-19T17:10:52;2.57;;;1.67;;
78372;SDS011;67656;52.074;4.758;2023-02-19T17:15:52;3.40;;;2.50;;
78372;SDS011;67656;52.074;4.758;2023-02-19T17:20:55;2.90;;;1.70;;
78372;SDS011;67656;52.074;4.758;2023-02-19T17:26:23;3.90;;;1.73;;
78372;SDS011;67656;52.074;4.758;2023-02-19T17:31:28;5.60;;;2.40;;
78372;SDS011;67656;52.074;4.758;2023-02-19T17:36:30;5.43;;;2.80;;
78372;SDS011;67656;52.074;4.758;2023-02-19T17:41:31;8.50;;;4.23;;
78372;SDS011;67656;52.074;4.758;2023-02-19T17:46:34;9.47;;;4.20;;
78372;SDS011;67656;52.074;4.758;2023-02-19T17:51:34;4.77;;;1.80;;
78372;SDS011;67656;52.074;4.758;2023-02-19T17:56:35;5.53;;;2.40;;
78372;SDS011;67656;52.074;4.758;2023-02-19T18:01:35;7.03;;;2.97;;
78372;SDS011;67656;52.074;4.758;2023-02-19T18:06:36;7.30;;;3.00;;
78372;SDS011;67656;52.074;4.758;2023-02-19T18:11:36;6.90;;;3.23;;
78372;SDS011;67656;52.074;4.758;2023-02-19T18:16:36;15.30;;;8.80;;
78372;SDS011;67656;52.074;4.758;2023-02-19T18:21:37;4.13;;;2.40;;
78372;SDS011;67656;52.074;4.758;2023-02-19T18:26:37;4.03;;;1.80;;
78372;SDS011;67656;52.074;4.758;2023-02-19T18:31:37;4.63;;;1.93;;
78372;SDS011;67656;52.074;4.758;2023-02-19T18:36:38;2.93;;;1.50;;
78372;SDS011;67656;52.074;4.758;2023-02-19T18:41:38;3.20;;;1.70;;
78372;SDS011;67656;52.074;4.758;2023-02-19T18:46:38;4.30;;;1.60;;
78372;SDS011;67656;52.074;4.758;2023-02-19T18:51:39;4.90;;;2.20;;
78372;SDS011;67656;52.074;4.758;2023-02-19T18:56:40;4.93;;;3.00;;
78372;SDS011;67656;52.074;4.758;2023-02-19T19:01:42;4.97;;;2.23;;
78372;SDS011;67656;52.074;4.758;2023-02-19T19:06:43;12.07;;;4.33;;
78372;SDS011;67656;52.074;4.758;2023-02-19T19:11:43;9.67;;;3.50;;
78372;SDS011;67656;52.074;4.758;2023-02-19T19:16:43;4.47;;;2.10;;
78372;SDS011;67656;52.074;4.758;2023-02-19T19:21:44;3.90;;;2.20;;
78372;SDS011;67656;52.074;4.758;2023-02-19T19:26:49;6.03;;;3.10;;
78372;SDS011;67656;52.074;4.758;2023-02-19T19:31:50;5.73;;;3.27;;
78372;SDS011;67656;52.074;4.758;2023-02-19T19:36:50;5.53;;;3.30;;
78372;SDS011;67656;52.074;4.758;2023-02-19T19:41:54;5.40;;;3.17;;
78372;SDS011;67656;52.074;4.758;2023-02-19T19:46:56;7.25;;;3.83;;
78372;SDS011;67656;52.074;4.758;2023-02-19T19:51:56;5.77;;;2.67;;
78372;SDS011;67656;52.074;4.758;2023-02-19T19:56:57;4.25;;;2.70;;
78372;SDS011;67656;52.074;4.758;2023-02-19T20:01:57;5.93;;;2.77;;
78372;SDS011;67656;52.074;4.758;2023-02-19T20:06:58;3.90;;;2.10;;
78372;SDS011;67656;52.074;4.758;2023-02-19T20:11:58;8.13;;;3.27;;
78372;SDS011;67656;52.074;4.758;2023-02-19T20:16:59;12.23;;;4.33;;
78372;SDS011;67656;52.074;4.758;2023-02-19T20:22:00;9.53;;;3.93;;
78372;SDS011;67656;52.074;4.758;2023-02-19T20:27:01;8.73;;;4.33;;
78372;SDS011;67656;52.074;4.758;2023-02-19T20:32:01;11.50;;;4.50;;
78372;SDS011;67656;52.074;4.758;2023-02-19T20:37:02;10.07;;;4.43;;
78372;SDS011;67656;52.074;4.758;2023-02-19T20:42:03;10.10;;;5.37;;
78372;SDS011;67656;52.074;4.758;2023-02-19T20:47:04;9.50;;;4.70;;
78372;SDS011;67656;52.074;4.758;2023-02-19T20:52:05;7.47;;;4.10;;
78372;SDS011;67656;52.074;4.758;2023-02-19T20:57:06;6.77;;;3.80;;
78372;SDS011;67656;52.074;4.758;2023-02-19T21:02:10;8.87;;;4.40;;
78372;SDS011;67656;52.074;4.758;2023-02-19T21:12:23;8.53;;;4.13;;
78372;SDS011;67656;52.074;4.758;2023-02-19T21:17:23;17.70;;;6.60;;
78372;SDS011;67656;52.074;4.758;2023-02-19T21:22:23;11.97;;;3.80;;
78372;SDS011;67656;52.074;4.758;2023-02-19T21:27:24;9.80;;;3.53;;
78372;SDS011;67656;52.074;4.758;2023-02-19T21:32:24;10.83;;;4.60;;
78372;SDS011;67656;52.074;4.758;2023-02-19T21:37:24;11.47;;;4.37;;
78372;SDS011;67656;52.074;4.758;2023-02-19T21:42:25;13.80;;;5.87;;
78372;SDS011;67656;52.074;4.758;2023-02-19T21:47:25;14.47;;;6.00;;
78372;SDS011;67656;52.074;4.758;2023-02-19T21:52:26;7.47;;;3.33;;
78372;SDS011;67656;52.074;4.758;2023-02-19T21:57:26;12.80;;;3.30;;
78372;SDS011;67656;52.074;4.758;2023-02-19T22:02:26;10.00;;;3.27;;
78372;SDS011;67656;52.074;4.758;2023-02-19T22:07:27;7.93;;;3.23;;
78372;SDS011;67656;52.074;4.758;2023-02-19T22:12:27;8.27;;;3.13;;
78372;SDS011;67656;52.074;4.758;2023-02-19T22:17:28;10.90;;;3.30;;
78372;SDS011;67656;52.074;4.758;2023-02-19T22:22:28;10.60;;;3.47;;
78372;SDS011;67656;52.074;4.758;2023-02-19T22:27:28;9.83;;;3.53;;
78372;SDS011;67656;52.074;4.758;2023-02-19T22:32:29;8.73;;;3.73;;
78372;SDS011;67656;52.074;4.758;2023-02-19T22:37:29;8.40;;;3.40;;
78372;SDS011;67656;52.074;4.758;2023-02-19T22:42:29;10.20;;;4.13;;
78372;SDS011;67656;52.074;4.758;2023-02-19T22:47:30;10.00;;;3.63;;
78372;SDS011;67656;52.074;4.758;2023-02-19T22:52:30;11.33;;;3.83;;
78372;SDS011;67656;52.074;4.758;2023-02-19T22:57:30;9.37;;;3.73;;
78372;SDS011;67656;52.074;4.758;2023-02-19T23:02:31;11.13;;;4.30;;
78372;SDS011;67656;52.074;4.758;2023-02-19T23:07:31;13.53;;;4.23;;
78372;SDS011;67656;52.074;4.758;2023-02-19T23:12:32;15.37;;;4.33;;
78372;SDS011;67656;52.074;4.758;2023-02-19T23:17:36;13.37;;;4.67;;
78372;SDS011;67656;52.074;4.758;2023-02-19T23:22:36;10.93;;;4.03;;
78372;SDS011;67656;52.074;4.758;2023-02-19T23:27:36;14.07;;;4.63;;
78372;SDS011;67656;52.074;4.758;2023-02-19T23:32:37;12.10;;;4.03;;
78372;SDS011;67656;52.074;4.758;2023-02-19T23:37:37;16.70;;;4.27;;
78372;SDS011;67656;52.074;4.758;2023-02-19T23:42:37;13.77;;;4.40;;
78372;SDS011;67656;52.074;4.758;2023-02-19T23:47:38;11.70;;;4.17;;
78372;SDS011;67656;52.074;4.758;2023-02-19T23:52:38;12.43;;;4.57;;
78372;SDS011;67656;52.074;4.758;2023-02-19T23:57:38;14.37;;;4.83;;
